Ash Fork, Arizona
Current Conditions -  °F | °C
As of 4:53 AM on Tuesday 21 Oct 2014 (Local Time) from KPRC Reporting Station
Clear Clear  
Wind Chill: 44°   Ceiling: Unl
Heat Index: 47°   Visibility: 10mi
Dew Point: 39°   Wind: 6mph
Humidity: 74%   Direction: 170°S
Pressure: 30.06"   Gusts: NA
Location:  35.23°N, 112.49°W
Report Text: KPRC 211153Z AUTO 17005KT 10SM CLR 08/04 A3006 RMK AO2 SLP123 T00830039 10122 20083 55005
Loading
Personal Weather Stations






























Interactive Weather Map New forecast layout! Learn more

10-Day Weather Forecast

Advertisements
Track Severe Weather on mobile